Cape Meares, Oregon
Current Conditions -  °F | °C
As of 8:15 PM on Friday 19 Dec 2014 (Local Time) from KTMK Reporting Station
Moderate Rain Moderate Rain  
Wind Chill: 46°   Ceiling: 4700
Heat Index: 48°   Visibility: 10mi
Dew Point: 45°   Wind: 5mph
Humidity: 87%   Direction: 200°SSW
Pressure: 29.94"   Gusts: NA
Location:  45.4813°N, 123.674°W
Report Text: KTMK 200415Z AUTO 20004KT 10SM RA SCT035 BKN047 OVC090 09/07 A2994 RMK AO2 P0001
Loading
Personal Weather Stations






























Interactive Weather Map New forecast layout! Learn more

10-Day Weather Forecast

Advertisements
Track Severe Weather on mobile